Bullock, North Carolina
Current Conditions -  °F | °C
As of 11:35 AM on Wednesday 22 Oct 2014 (Local Time) from KW63 Reporting Station
Overcast Overcast  
Wind Chill: 59°   Ceiling: 4000
Heat Index: 59°   Visibility: 10mi
Dew Point: 43°   Wind: 7mph
Humidity: 55%   Direction: 330°NNW
Pressure: 29.98"   Gusts: 18mph
Location:  36.49°N, 78.55°W
Report Text: KW63 221535Z AUTO 33006G16KT 10SM OVC040 15/06 A2998 RMK AO1
Loading
Personal Weather Stations






























Interactive Weather Map
Tropical Storm Tracking
New forecast layout! Learn more

10-Day Weather Forecast

Advertisements
Track Severe Weather on mobile